Terminal Aerodrome Forecast
Issued by NWS

Home | Current Version | Previous Version | Text Only | Print | Product List | Glossary On
Versions: 1 2 3 4 5 6 7 8 9 10 11 12 13 14 15 16 17 18 19 20 21 22 23 24 25 26 27 28 29 30 31 32
000
FTUS46 KEKA 211746
TAFCEC
TAF
KCEC 211746Z 2118/2218 35012KT P6SM SKC
     FM212000 34015G22KT P6SM SKC
     FM220300 34010G18KT P6SM SCT015 BKN200
     FM220600 04008KT P6SM SCT012 BKN150
     FM221300 03005KT 4SM BR FEW008 SCT120
     FM221600 33010KT P6SM FEW120=

USA.gov is the U.S. government's official web portal to all federal, state and local government web resources and services.